Time;durP1;ratioP1;P1;durP2;ratioP2;P2;SDS_P1;SDS_P2;PMS_P1;PMS_P2;Temp;Humidity;BMP_temperature;BMP_pressure;BME280_temperature;BME280_humidity;BME280_pressure;Samples;Min_cycle;Max_cycle;Signal;HPM_P1;HPM_P2
2021/06/24 00:01:46;;;;;;;12.40;6.53;;;;;;;;;;4997937;28;20416;-83
2021/06/24 00:04:13;;;;;;;16.42;6.82;;;;;;;;;;4998038;28;20398;-84
2021/06/24 00:06:41;;;;;;;12.90;6.60;;;;;;;;;;4997665;28;20425;-84
2021/06/24 00:09:09;;;;;;;14.98;6.68;;;;;;;;;;4998656;28;20405;-84
2021/06/24 00:11:35;;;;;;;14.90;6.70;;;;;;;;;;4999146;28;20416;-83
2021/06/24 00:14:03;;;;;;;15.65;6.82;;;;;;;;;;4996610;28;20402;-83
2021/06/24 00:16:30;;;;;;;16.33;7.17;;;;;;;;;;4996227;28;20437;-84
2021/06/24 00:18:57;;;;;;;15.63;6.38;;;;;;;;;;5000802;28;20777;-84
2021/06/24 00:21:24;;;;;;;15.05;6.88;;;;;;;;;;5002044;28;20405;-84
2021/06/24 00:23:53;;;;;;;14.52;6.38;;;;;;;;;;4999399;28;20408;-84
2021/06/24 00:26:20;;;;;;;17.92;7.25;;;;;;;;;;4996194;28;20397;-84
2021/06/24 00:28:49;;;;;;;17.73;7.50;;;;;;;;;;4996833;28;20409;-82
2021/06/24 00:31:16;;;;;;;16.75;6.88;;;;;;;;;;4999578;28;20401;-82
2021/06/24 00:33:43;;;;;;;17.08;7.20;;;;;;;;;;4998103;28;20873;-84
2021/06/24 00:36:11;;;;;;;14.23;7.57;;;;;;;;;;5000209;28;20419;-82
2021/06/24 00:38:38;;;;;;;16.63;7.03;;;;;;;;;;4998519;28;20783;-82
2021/06/24 00:41:08;;;;;;;18.57;7.23;;;;;;;;;;5000656;28;20534;-85
2021/06/24 00:43:35;;;;;;;15.93;6.72;;;;;;;;;;4997931;28;20887;-83
2021/06/24 00:46:02;;;;;;;20.20;7.50;;;;;;;;;;4999510;28;20471;-83
2021/06/24 00:48:28;;;;;;;16.65;8.27;;;;;;;;;;4994646;28;20923;-85
2021/06/24 00:50:55;;;;;;;14.27;8.27;;;;;;;;;;4996094;28;20414;-84
2021/06/24 00:53:22;;;;;;;18.48;8.13;;;;;;;;;;5003420;28;20413;-84
2021/06/24 00:55:51;;;;;;;18.88;8.00;;;;;;;;;;4996926;28;20508;-83
2021/06/24 00:58:21;;;;;;;15.98;7.68;;;;;;;;;;5001222;28;20908;-84
2021/06/24 01:00:50;;;;;;;17.80;8.20;;;;;;;;;;4997397;28;20475;-83
2021/06/24 01:03:17;;;;;;;18.15;8.00;;;;;;;;;;4999111;28;20422;-84
2021/06/24 01:05:45;;;;;;;16.30;7.97;;;;;;;;;;4995513;28;20413;-84
2021/06/24 01:08:15;;;;;;;17.63;8.73;;;;;;;;;;4998176;28;20397;-84
2021/06/24 01:10:43;;;;;;;18.88;8.27;;;;;;;;;;4997093;28;20435;-83
2021/06/24 01:13:11;;;;;;;18.00;8.52;;;;;;;;;;5000383;28;20429;-83
2021/06/24 01:15:40;;;;;;;16.83;8.40;;;;;;;;;;4996577;28;20443;-84
2021/06/24 01:18:07;;;;;;;18.15;8.30;;;;;;;;;;4999011;28;20419;-84
2021/06/24 01:20:36;;;;;;;18.20;8.50;;;;;;;;;;4996356;28;20413;-84
2021/06/24 01:23:05;;;;;;;17.48;8.40;;;;;;;;;;4997880;28;20746;-82
2021/06/24 01:25:34;;;;;;;15.45;8.38;;;;;;;;;;4995934;28;20417;-83
2021/06/24 01:28:03;;;;;;;17.67;8.45;;;;;;;;;;4996838;28;20428;-84
2021/06/24 01:30:30;;;;;;;18.70;8.55;;;;;;;;;;4997024;28;20809;-83
2021/06/24 01:32:57;;;;;;;16.50;8.40;;;;;;;;;;4998851;28;21516;-83
2021/06/24 01:35:26;;;;;;;15.18;8.18;;;;;;;;;;4993814;28;20417;-84
2021/06/24 01:37:56;;;;;;;12.32;8.02;;;;;;;;;;4996180;28;20429;-84
2021/06/24 01:40:23;;;;;;;14.65;8.80;;;;;;;;;;4992992;28;20413;-84
2021/06/24 01:42:51;;;;;;;13.35;8.32;;;;;;;;;;4994706;28;20964;-83
2021/06/24 01:45:18;;;;;;;15.25;8.50;;;;;;;;;;5002548;28;20413;-84
2021/06/24 01:47:45;;;;;;;16.15;8.63;;;;;;;;;;5000779;28;20403;-84
2021/06/24 01:50:12;;;;;;;17.80;8.60;;;;;;;;;;4998265;28;20400;-84
2021/06/24 01:52:41;;;;;;;14.63;8.90;;;;;;;;;;5006585;28;20411;-84
2021/06/24 01:55:08;;;;;;;17.55;8.68;;;;;;;;;;5018721;28;20437;-84
2021/06/24 01:57:36;;;;;;;16.15;8.30;;;;;;;;;;5017457;28;20429;-85
2021/06/24 02:00:07;;;;;;;14.18;7.20;;;;;;;;;;5018077;28;20405;-84
2021/06/24 02:02:34;;;;;;;13.82;7.38;;;;;;;;;;4996803;28;20412;-81
2021/06/24 02:05:01;;;;;;;15.82;7.90;;;;;;;;;;4993549;28;20410;-84
2021/06/24 02:07:28;;;;;;;14.65;7.72;;;;;;;;;;4991319;28;20419;-83
2021/06/24 02:09:54;;;;;;;12.55;7.30;;;;;;;;;;5004453;28;20404;-84
2021/06/24 02:12:21;;;;;;;16.38;7.72;;;;;;;;;;4994722;28;20407;-83
2021/06/24 02:14:48;;;;;;;14.98;7.32;;;;;;;;;;4994278;28;20424;-83
2021/06/24 02:17:16;;;;;;;12.30;7.28;;;;;;;;;;4999891;28;20491;-84
2021/06/24 02:19:45;;;;;;;15.57;7.10;;;;;;;;;;4997203;28;20414;-84
2021/06/24 02:22:11;;;;;;;16.07;7.00;;;;;;;;;;4994352;28;20412;-84
2021/06/24 02:24:38;;;;;;;12.43;7.15;;;;;;;;;;4999076;28;20416;-84
2021/06/24 02:27:05;;;;;;;15.85;7.13;;;;;;;;;;5000095;28;20408;-84
2021/06/24 02:29:32;;;;;;;15.00;6.87;;;;;;;;;;4996776;28;20471;-84
2021/06/24 02:31:59;;;;;;;15.50;7.07;;;;;;;;;;4996713;28;20413;-85
2021/06/24 02:34:28;;;;;;;17.67;7.13;;;;;;;;;;4997836;28;20870;-85
2021/06/24 02:36:55;;;;;;;15.45;6.80;;;;;;;;;;4995747;28;20495;-84
2021/06/24 02:39:22;;;;;;;17.63;7.00;;;;;;;;;;4995205;28;20434;-85
2021/06/24 02:41:49;;;;;;;15.25;6.55;;;;;;;;;;5000563;28;20411;-84
2021/06/24 02:44:16;;;;;;;15.38;6.95;;;;;;;;;;4995358;28;20812;-85
2021/06/24 02:46:43;;;;;;;12.10;6.60;;;;;;;;;;4998428;28;20415;-84
2021/06/24 02:49:09;;;;;;;13.80;6.97;;;;;;;;;;4996308;28;20516;-84
2021/06/24 02:51:37;;;;;;;13.73;6.80;;;;;;;;;;4997501;28;20474;-84
2021/06/24 02:54:05;;;;;;;12.38;6.43;;;;;;;;;;4996561;28;20438;-84
2021/06/24 02:56:34;;;;;;;13.50;6.53;;;;;;;;;;4996128;28;20447;-84
2021/06/24 02:59:01;;;;;;;12.35;6.72;;;;;;;;;;4995856;28;20465;-85
2021/06/24 03:01:28;;;;;;;16.00;6.43;;;;;;;;;;4995537;28;20888;-84
2021/06/24 03:03:55;;;;;;;15.15;6.80;;;;;;;;;;4997718;28;20422;-84
2021/06/24 03:06:22;;;;;;;13.02;7.18;;;;;;;;;;4995515;28;20405;-84
2021/06/24 03:08:51;;;;;;;13.68;6.60;;;;;;;;;;4998538;28;20407;-84
2021/06/24 03:11:18;;;;;;;12.15;6.72;;;;;;;;;;4987060;28;20416;-85
2021/06/24 03:13:47;;;;;;;12.40;7.27;;;;;;;;;;4986660;28;20412;-84
2021/06/24 03:16:14;;;;;;;13.30;7.78;;;;;;;;;;4991792;28;20420;-84
2021/06/24 03:18:41;;;;;;;18.33;8.90;;;;;;;;;;4996068;28;20423;-83
2021/06/24 03:21:08;;;;;;;16.15;8.60;;;;;;;;;;4997668;28;20480;-84
2021/06/24 03:23:35;;;;;;;18.33;8.20;;;;;;;;;;4994994;28;20407;-84
2021/06/24 03:26:03;;;;;;;18.38;8.45;;;;;;;;;;4995691;28;20412;-84
2021/06/24 03:28:30;;;;;;;15.53;8.27;;;;;;;;;;4996393;28;20898;-84
2021/06/24 03:30:57;;;;;;;15.17;7.77;;;;;;;;;;4994344;28;20412;-82
2021/06/24 03:33:25;;;;;;;17.90;8.20;;;;;;;;;;4995154;28;20802;-84
2021/06/24 03:35:52;;;;;;;15.82;8.60;;;;;;;;;;4993807;28;20413;-84
2021/06/24 03:38:19;;;;;;;14.45;8.13;;;;;;;;;;4995989;28;20481;-83
2021/06/24 03:40:46;;;;;;;16.20;8.13;;;;;;;;;;4987456;28;20401;-85
2021/06/24 03:43:14;;;;;;;13.50;7.70;;;;;;;;;;4987239;28;20421;-84
2021/06/24 03:45:41;;;;;;;16.92;7.22;;;;;;;;;;4986518;28;20416;-84
2021/06/24 03:48:08;;;;;;;13.40;7.00;;;;;;;;;;4986881;28;20412;-84
2021/06/24 03:50:36;;;;;;;15.73;7.10;;;;;;;;;;4985834;28;21283;-84
2021/06/24 03:53:03;;;;;;;12.43;7.25;;;;;;;;;;4986443;28;20754;-85
2021/06/24 03:55:41;;;;;;;14.65;6.55;;;;;;;;;;4986665;28;20925;-84
2021/06/24 03:58:08;;;;;;;13.85;5.95;;;;;;;;;;4984989;28;20424;-84
2021/06/24 04:00:38;;;;;;;14.73;5.83;;;;;;;;;;4986029;28;20408;-84
2021/06/24 04:03:05;;;;;;;11.47;5.70;;;;;;;;;;4987529;28;20417;-84
2021/06/24 04:05:35;;;;;;;13.48;6.03;;;;;;;;;;4988015;28;20476;-84
2021/06/24 04:08:04;;;;;;;13.40;5.22;;;;;;;;;;4999980;28;21835;-83
2021/06/24 04:10:33;;;;;;;11.93;5.07;;;;;;;;;;5034597;28;20477;-85
2021/06/24 04:13:00;;;;;;;15.82;5.32;;;;;;;;;;5040590;28;20393;-85
2021/06/24 04:15:28;;;;;;;13.07;5.25;;;;;;;;;;5022887;28;20398;-84
2021/06/24 04:17:57;;;;;;;12.43;5.53;;;;;;;;;;5020327;28;20421;-83
2021/06/24 04:20:24;;;;;;;9.47;5.00;;;;;;;;;;5020058;28;20813;-84
2021/06/24 04:22:51;;;;;;;13.03;5.70;;;;;;;;;;5014296;28;20402;-84
2021/06/24 04:25:19;;;;;;;13.65;5.82;;;;;;;;;;5020934;28;20509;-84
2021/06/24 04:27:46;;;;;;;13.87;5.50;;;;;;;;;;5018895;28;20406;-85
2021/06/24 04:30:14;;;;;;;14.32;6.00;;;;;;;;;;5020304;28;20802;-84
2021/06/24 04:32:41;;;;;;;14.30;5.45;;;;;;;;;;5020181;28;20403;-84
2021/06/24 04:35:11;;;;;;;10.85;5.53;;;;;;;;;;5018902;28;20405;-84
2021/06/24 04:37:38;;;;;;;12.77;5.45;;;;;;;;;;5014870;28;20767;-84
2021/06/24 04:40:07;;;;;;;14.40;5.60;;;;;;;;;;5019738;28;20464;-84
2021/06/24 04:42:34;;;;;;;11.75;5.80;;;;;;;;;;5019155;28;20816;-84
2021/06/24 04:45:01;;;;;;;15.63;6.13;;;;;;;;;;5018551;28;20473;-84
2021/06/24 04:47:28;;;;;;;13.65;5.85;;;;;;;;;;5018079;28;20405;-84
2021/06/24 04:49:55;;;;;;;13.73;6.68;;;;;;;;;;5019115;28;20409;-84
2021/06/24 04:52:23;;;;;;;15.95;7.25;;;;;;;;;;5012633;28;20424;-84
2021/06/24 04:54:50;;;;;;;14.07;7.05;;;;;;;;;;5019204;28;20401;-83
2021/06/24 04:57:16;;;;;;;16.45;7.18;;;;;;;;;;5013804;28;20429;-84
2021/06/24 04:59:43;;;;;;;18.25;7.32;;;;;;;;;;5016496;28;20399;-85
2021/06/24 05:02:10;;;;;;;16.63;7.32;;;;;;;;;;5008427;28;20407;-84
2021/06/24 05:04:37;;;;;;;15.73;6.88;;;;;;;;;;5018405;28;20401;-84
2021/06/24 05:07:08;;;;;;;14.00;6.53;;;;;;;;;;5018483;28;20836;-83
2021/06/24 05:09:39;;;;;;;17.48;6.35;;;;;;;;;;5017098;28;20409;-84
2021/06/24 05:12:06;;;;;;;17.85;6.60;;;;;;;;;;5017635;28;20409;-83
2021/06/24 05:14:34;;;;;;;14.53;6.10;;;;;;;;;;5017080;28;20401;-85
2021/06/24 05:17:01;;;;;;;16.23;6.28;;;;;;;;;;5017967;28;20901;-84
2021/06/24 05:19:28;;;;;;;15.65;6.57;;;;;;;;;;5017724;28;20408;-83
2021/06/24 05:21:55;;;;;;;13.30;6.57;;;;;;;;;;5015077;28;20555;-84
2021/06/24 05:24:22;;;;;;;13.95;6.70;;;;;;;;;;5011364;28;20417;-84
2021/06/24 05:26:50;;;;;;;12.40;6.40;;;;;;;;;;5010224;28;20471;-84
2021/06/24 05:29:17;;;;;;;15.13;6.38;;;;;;;;;;5017305;28;20415;-84
2021/06/24 05:31:44;;;;;;;17.63;6.47;;;;;;;;;;5016929;28;20411;-82
2021/06/24 05:34:10;;;;;;;16.15;5.95;;;;;;;;;;5018260;28;20423;-85
2021/06/24 05:36:37;;;;;;;14.70;6.00;;;;;;;;;;5016562;28;20409;-85
2021/06/24 05:39:05;;;;;;;14.33;6.30;;;;;;;;;;5014831;28;20427;-85
2021/06/24 05:41:32;;;;;;;14.88;5.70;;;;;;;;;;5013609;28;20416;-85
2021/06/24 05:44:00;;;;;;;11.67;5.53;;;;;;;;;;5016852;28;20397;-85
2021/06/24 05:46:28;;;;;;;14.15;5.25;;;;;;;;;;5016200;28;20405;-85
2021/06/24 05:48:55;;;;;;;14.37;5.57;;;;;;;;;;5011187;28;20606;-85
2021/06/24 05:51:23;;;;;;;14.03;5.43;;;;;;;;;;4996866;28;20749;-84
2021/06/24 05:53:50;;;;;;;17.23;5.88;;;;;;;;;;5017331;28;20397;-85
2021/06/24 05:56:17;;;;;;;15.55;5.70;;;;;;;;;;5016804;28;20902;-85
2021/06/24 05:58:44;;;;;;;15.40;5.72;;;;;;;;;;5014362;28;20424;-86
2021/06/24 06:01:14;;;;;;;17.92;5.68;;;;;;;;;;5014463;28;20799;-86
2021/06/24 06:03:41;;;;;;;11.60;5.45;;;;;;;;;;5017034;22;20415;-85
2021/06/24 06:06:08;;;;;;;19.33;6.05;;;;;;;;;;4995475;28;20403;-86
2021/06/24 06:08:35;;;;;;;15.98;5.95;;;;;;;;;;4995098;28;20418;-84
2021/06/24 06:11:02;;;;;;;14.55;5.78;;;;;;;;;;4997668;28;20411;-84
2021/06/24 06:13:28;;;;;;;15.65;5.70;;;;;;;;;;4987529;28;20435;-83
2021/06/24 06:15:55;;;;;;;11.98;5.32;;;;;;;;;;4995600;28;20403;-82
2021/06/24 06:18:25;;;;;;;13.30;5.30;;;;;;;;;;4996597;28;20426;-84
2021/06/24 06:20:53;;;;;;;13.95;5.10;;;;;;;;;;4997066;28;20755;-84
2021/06/24 06:23:21;;;;;;;15.43;5.60;;;;;;;;;;4996443;28;20461;-83
2021/06/24 06:25:50;;;;;;;16.52;5.82;;;;;;;;;;4989248;28;20921;-83
2021/06/24 06:28:18;;;;;;;17.53;5.40;;;;;;;;;;4989492;28;20419;-76
2021/06/24 06:30:46;;;;;;;16.40;5.32;;;;;;;;;;4990580;28;20470;-76
2021/06/24 06:33:13;;;;;;;13.15;5.20;;;;;;;;;;4988086;28;20461;-76
2021/06/24 06:35:41;;;;;;;12.68;5.50;;;;;;;;;;4987322;28;20409;-76
2021/06/24 06:38:08;;;;;;;12.05;5.20;;;;;;;;;;4988015;28;20425;-75
2021/06/24 06:40:35;;;;;;;12.02;5.32;;;;;;;;;;4987830;28;20771;-76
2021/06/24 06:43:02;;;;;;;18.75;5.57;;;;;;;;;;4987970;28;20408;-80
2021/06/24 06:45:30;;;;;;;13.38;5.60;;;;;;;;;;4987884;28;20812;-74
2021/06/24 06:47:57;;;;;;;17.52;6.18;;;;;;;;;;4994233;28;20407;-74
2021/06/24 06:50:24;;;;;;;13.52;5.63;;;;;;;;;;4994276;28;20411;-75
2021/06/24 06:52:52;;;;;;;14.57;6.00;;;;;;;;;;4997078;28;20411;-74
2021/06/24 06:55:19;;;;;;;15.98;5.80;;;;;;;;;;4996487;28;20823;-74
2021/06/24 06:57:46;;;;;;;13.98;6.00;;;;;;;;;;4989410;28;20423;-75
2021/06/24 07:00:14;;;;;;;15.75;6.40;;;;;;;;;;4994178;28;20412;-75
2021/06/24 07:02:41;;;;;;;17.88;6.70;;;;;;;;;;4997833;28;20811;-76
2021/06/24 07:05:08;;;;;;;14.50;6.55;;;;;;;;;;4992615;28;20470;-75
2021/06/24 07:07:35;;;;;;;19.30;7.15;;;;;;;;;;4991170;28;20824;-75
2021/06/24 07:10:04;;;;;;;18.08;7.28;;;;;;;;;;4990556;28;20495;-75
2021/06/24 07:12:31;;;;;;;15.27;6.57;;;;;;;;;;4990186;28;20408;-75
2021/06/24 07:14:58;;;;;;;27.25;7.35;;;;;;;;;;4990005;28;20401;-76
2021/06/24 07:17:25;;;;;;;15.68;6.60;;;;;;;;;;4997266;28;20462;-75
2021/06/24 07:19:51;;;;;;;17.47;6.60;;;;;;;;;;4998920;28;20439;-75
2021/06/24 07:22:18;;;;;;;15.85;6.25;;;;;;;;;;4999994;28;20408;-76
2021/06/24 07:24:45;;;;;;;15.30;6.60;;;;;;;;;;4998478;28;20409;-76
2021/06/24 07:27:13;;;;;;;18.65;6.72;;;;;;;;;;4998264;28;20687;-75
2021/06/24 07:29:40;;;;;;;23.98;7.45;;;;;;;;;;4998119;28;20895;-76
2021/06/24 07:32:08;;;;;;;19.38;6.60;;;;;;;;;;4998537;28;20486;-76
2021/06/24 07:34:34;;;;;;;16.70;6.80;;;;;;;;;;4997991;28;20895;-75
2021/06/24 07:37:01;;;;;;;17.30;6.55;;;;;;;;;;4998036;28;20586;-75
2021/06/24 07:39:28;;;;;;;15.05;6.00;;;;;;;;;;4997957;28;20584;-75
2021/06/24 07:41:55;;;;;;;16.80;6.25;;;;;;;;;;4998937;28;20407;-74
2021/06/24 07:44:23;;;;;;;24.15;6.68;;;;;;;;;;4998643;28;20420;-75
2021/06/24 07:46:50;;;;;;;16.48;6.30;;;;;;;;;;4997907;28;20416;-76
2021/06/24 07:49:17;;;;;;;16.10;6.55;;;;;;;;;;4992389;28;20403;-75
2021/06/24 07:51:43;;;;;;;18.33;6.40;;;;;;;;;;4991014;28;20435;-77
2021/06/24 07:54:10;;;;;;;19.58;6.60;;;;;;;;;;4990735;28;20884;-75
2021/06/24 07:56:37;;;;;;;19.63;6.57;;;;;;;;;;4990481;28;20419;-83
2021/06/24 07:59:04;;;;;;;18.45;6.55;;;;;;;;;;4992985;28;20432;-83
2021/06/24 08:01:32;;;;;;;15.75;6.68;;;;;;;;;;4996407;28;20403;-83
2021/06/24 08:03:59;;;;;;;15.98;6.93;;;;;;;;;;4995590;28;20906;-84
2021/06/24 08:06:26;;;;;;;17.23;6.30;;;;;;;;;;4992081;28;20893;-83
2021/06/24 08:08:52;;;;;;;17.58;6.30;;;;;;;;;;4994904;28;20411;-84
2021/06/24 08:11:19;;;;;;;17.17;6.50;;;;;;;;;;4990394;28;20589;-82
2021/06/24 08:13:46;;;;;;;17.80;6.45;;;;;;;;;;4994091;28;20487;-83
2021/06/24 08:16:13;;;;;;;15.27;6.03;;;;;;;;;;4991496;28;20403;-84
2021/06/24 08:18:41;;;;;;;16.25;6.75;;;;;;;;;;4992050;28;20423;-84
2021/06/24 08:21:08;;;;;;;15.30;6.43;;;;;;;;;;4991544;28;20891;-83
2021/06/24 08:23:35;;;;;;;18.30;6.93;;;;;;;;;;4990100;28;20408;-83
2021/06/24 08:26:01;;;;;;;17.38;6.05;;;;;;;;;;4989090;28;20413;-84
2021/06/24 08:28:29;;;;;;;13.57;6.27;;;;;;;;;;4989646;28;20428;-84
2021/06/24 08:30:56;;;;;;;15.30;6.15;;;;;;;;;;4995609;28;20491;-84
2021/06/24 08:33:23;;;;;;;16.85;5.97;;;;;;;;;;4992541;28;20422;-84
2021/06/24 08:35:53;;;;;;;17.58;6.50;;;;;;;;;;4989229;28;20486;-84
2021/06/24 08:38:20;;;;;;;12.88;5.78;;;;;;;;;;4991145;28;20451;-83
2021/06/24 08:40:47;;;;;;;14.13;5.65;;;;;;;;;;4992099;28;20749;-83
2021/06/24 08:43:14;;;;;;;15.63;5.95;;;;;;;;;;4991937;28;20407;-84
2021/06/24 08:45:41;;;;;;;15.83;6.03;;;;;;;;;;4987065;28;20930;-84
2021/06/24 08:48:13;;;;;;;16.87;5.70;;;;;;;;;;4989927;28;20417;-83
2021/06/24 08:50:43;;;;;;;18.42;6.32;;;;;;;;;;4991270;28;20413;-84
2021/06/24 08:53:11;;;;;;;15.67;6.20;;;;;;;;;;4991114;28;20415;-83
2021/06/24 08:55:41;;;;;;;17.38;5.93;;;;;;;;;;4991054;28;20499;-84
2021/06/24 08:58:08;;;;;;;15.45;5.70;;;;;;;;;;4989563;28;20504;-84
2021/06/24 09:00:35;;;;;;;16.15;5.60;;;;;;;;;;4992109;28;20419;-84
2021/06/24 09:03:14;;;;;;;16.05;5.72;;;;;;;;;;4991576;28;20891;-83
2021/06/24 09:05:49;;;;;;;13.82;5.50;;;;;;;;;;4989859;28;20492;-84
2021/06/24 09:08:24;;;;;;;15.25;6.00;;;;;;;;;;4989767;28;20415;-83
2021/06/24 09:11:09;;;;;;;14.27;5.32;;;;;;;;;;4988686;28;20514;-84
2021/06/24 09:13:36;;;;;;;14.30;5.30;;;;;;;;;;4991235;28;20787;-83
2021/06/24 09:16:06;;;;;;;11.25;4.65;;;;;;;;;;4989370;28;20420;-83
2021/06/24 09:18:33;;;;;;;13.13;4.65;;;;;;;;;;4989298;28;20492;-84
2021/06/24 09:21:03;;;;;;;14.63;4.97;;;;;;;;;;4991333;28;20420;-84
2021/06/24 09:23:35;;;;;;;15.32;5.10;;;;;;;;;;4989433;28;20500;-83
2021/06/24 09:26:13;;;;;;;17.08;5.75;;;;;;;;;;4992342;28;20793;-83
2021/06/24 09:28:41;;;;;;;16.90;5.65;;;;;;;;;;4988027;28;20418;-83
2021/06/24 09:31:22;;;;;;;13.80;5.88;;;;;;;;;;4989832;28;20412;-83
2021/06/24 09:33:49;;;;;;;14.38;5.53;;;;;;;;;;4989613;28;21232;-85
2021/06/24 09:36:32;;;;;;;16.23;5.35;;;;;;;;;;4990745;28;20514;-85
2021/06/24 09:39:00;;;;;;;16.02;5.65;;;;;;;;;;4990899;28;20533;-84
2021/06/24 09:41:27;;;;;;;19.08;6.22;;;;;;;;;;4986169;28;20414;-84
2021/06/24 09:43:55;;;;;;;17.27;6.18;;;;;;;;;;4987946;28;20402;-85
2021/06/24 09:46:26;;;;;;;18.27;7.27;;;;;;;;;;4987057;28;20414;-84
2021/06/24 09:48:56;;;;;;;16.02;6.50;;;;;;;;;;4987167;28;20425;-84
2021/06/24 09:51:26;;;;;;;18.45;6.72;;;;;;;;;;4987921;28;20440;-84
2021/06/24 09:53:55;;;;;;;19.50;7.27;;;;;;;;;;4988530;28;20975;-85
2021/06/24 09:56:26;;;;;;;23.20;6.78;;;;;;;;;;4988832;28;20414;-85
2021/06/24 09:58:54;;;;;;;20.25;6.38;;;;;;;;;;4991564;28;20966;-85
2021/06/24 10:01:28;;;;;;;17.27;7.10;;;;;;;;;;4989548;28;20401;-85
2021/06/24 10:03:57;;;;;;;16.90;6.22;;;;;;;;;;4992092;28;20410;-85
2021/06/24 10:06:24;;;;;;;18.03;6.60;;;;;;;;;;4990436;28;20502;-85
2021/06/24 10:08:51;;;;;;;18.27;6.53;;;;;;;;;;4995155;28;20405;-84
2021/06/24 10:11:19;;;;;;;23.15;6.90;;;;;;;;;;4995776;28;20418;-84
2021/06/24 10:13:48;;;;;;;21.17;7.33;;;;;;;;;;4998261;28;20405;-85
2021/06/24 10:16:16;;;;;;;20.33;7.68;;;;;;;;;;4999285;28;20417;-85
2021/06/24 10:18:46;;;;;;;18.40;7.10;;;;;;;;;;4995784;28;20877;-85
2021/06/24 10:21:15;;;;;;;19.23;7.83;;;;;;;;;;4998597;28;20861;-87
2021/06/24 10:23:48;;;;;;;20.50;7.03;;;;;;;;;;4992966;28;20950;-83
2021/06/24 10:26:16;;;;;;;12.90;6.57;;;;;;;;;;4996021;28;20740;-84
2021/06/24 10:28:43;;;;;;;18.42;6.97;;;;;;;;;;4995879;28;20411;-84
2021/06/24 10:31:43;;;;;;;20.15;7.10;;;;;;;;;;4997681;28;20501;-85
2021/06/24 10:34:10;;;;;;;20.20;6.73;;;;;;;;;;4999450;28;20411;-85
2021/06/24 10:36:37;;;;;;;19.70;6.80;;;;;;;;;;5003581;28;20421;-84
2021/06/24 10:39:06;;;;;;;19.60;6.73;;;;;;;;;;5004937;28;20439;-85
2021/06/24 10:42:05;;;;;;;22.08;6.78;;;;;;;;;;5002454;28;20421;-83
2021/06/24 10:44:54;;;;;;;20.08;6.70;;;;;;;;;;4969682;28;20778;-83
2021/06/24 10:47:34;;;;;;;15.40;6.32;;;;;;;;;;4987676;28;20529;-85
2021/06/24 10:50:36;;;;;;;18.83;7.22;;;;;;;;;;5001661;28;20491;-85
2021/06/24 10:53:39;;;;;;;19.13;7.18;;;;;;;;;;4994510;28;20435;-84
2021/06/24 10:56:49;;;;;;;20.38;6.53;;;;;;;;;;4997079;28;20416;-85
2021/06/24 10:59:33;;;;;;;20.75;6.45;;;;;;;;;;4957493;28;20422;-84
2021/06/24 11:02:22;;;;;;;19.92;6.55;;;;;;;;;;4998007;28;20398;-84
2021/06/24 11:04:50;;;;;;;17.07;5.60;;;;;;;;;;4995246;28;20411;-84
2021/06/24 11:07:37;;;;;;;17.67;6.30;;;;;;;;;;4999984;28;21080;-85
2021/06/24 11:10:14;;;;;;;16.60;5.90;;;;;;;;;;4995192;28;20463;-85
2021/06/24 11:13:16;;;;;;;16.73;6.55;;;;;;;;;;4994734;28;20427;-84
2021/06/24 11:15:54;;;;;;;16.00;5.80;;;;;;;;;;4995266;28;20422;-85
2021/06/24 11:18:56;;;;;;;16.33;6.38;;;;;;;;;;4996984;28;20407;-85
2021/06/24 11:21:55;;;;;;;18.38;6.07;;;;;;;;;;4999594;28;20487;-85
2021/06/24 11:24:27;;;;;;;16.23;6.13;;;;;;;;;;4996630;28;20418;-85
2021/06/24 11:26:56;;;;;;;14.60;6.30;;;;;;;;;;4991105;28;20925;-82
2021/06/24 11:32:12;;;;;;;17.52;6.65;;;;;;;;;;4994277;28;20761;-83
2021/06/24 11:34:48;;;;;;;12.10;6.68;;;;;;;;;;4993355;28;20518;-83
2021/06/24 11:37:18;;;;;;;19.88;7.10;;;;;;;;;;4993760;28;20441;-84
2021/06/24 11:39:46;;;;;;;17.90;6.63;;;;;;;;;;4992220;28;20424;-84
2021/06/24 11:42:14;;;;;;;15.68;6.55;;;;;;;;;;4993422;28;20593;-84
2021/06/24 11:44:45;;;;;;;14.40;6.17;;;;;;;;;;4992604;28;20399;-84
2021/06/24 11:47:13;;;;;;;15.82;6.55;;;;;;;;;;4993535;28;20948;-83
2021/06/24 12:04:05;;;;;;;16.83;5.88;;;;;;;;;;4926293;28;1917138;-83
2021/06/24 12:06:43;;;;;;;14.18;6.05;;;;;;;;;;4993267;28;20420;-82
2021/06/24 12:09:11;;;;;;;16.23;6.15;;;;;;;;;;4994234;28;20418;-84
2021/06/24 12:11:40;;;;;;;17.83;5.93;;;;;;;;;;4995112;28;20419;-83
2021/06/24 12:14:22;;;;;;;13.18;5.50;;;;;;;;;;4995279;28;20418;-83
2021/06/24 12:17:09;;;;;;;18.95;6.18;;;;;;;;;;4995205;28;20423;-84
2021/06/24 12:19:51;;;;;;;16.33;5.83;;;;;;;;;;4992534;28;20477;-83
2021/06/24 12:22:19;;;;;;;13.65;5.25;;;;;;;;;;4994753;28;20783;-82
2021/06/24 12:24:48;;;;;;;13.07;5.10;;;;;;;;;;4994900;28;20399;-83
2021/06/24 12:27:21;;;;;;;16.15;5.20;;;;;;;;;;4991599;28;20415;-82
2021/06/24 12:29:49;;;;;;;12.23;5.15;;;;;;;;;;4994426;28;20532;-82
2021/06/24 12:32:18;;;;;;;15.95;5.43;;;;;;;;;;4993538;28;20468;-82
2021/06/24 12:34:45;;;;;;;15.85;5.47;;;;;;;;;;4990201;28;20399;-83
2021/06/24 12:37:28;;;;;;;9.73;4.72;;;;;;;;;;4990440;28;21259;-82
2021/06/24 12:39:56;;;;;;;12.57;4.93;;;;;;;;;;4996683;28;20507;-82
2021/06/24 12:42:23;;;;;;;17.08;5.18;;;;;;;;;;4998005;28;20402;-83
2021/06/24 12:44:53;;;;;;;14.50;5.18;;;;;;;;;;4996729;28;20871;-82
2021/06/24 12:47:42;;;;;;;7.80;4.17;;;;;;;;;;4994288;28;20465;-82
2021/06/24 12:50:24;;;;;;;11.65;4.28;;;;;;;;;;4998198;28;20485;-81
2021/06/24 12:52:53;;;;;;;10.85;4.20;;;;;;;;;;4996712;28;20663;-83
2021/06/24 12:55:38;;;;;;;15.20;4.38;;;;;;;;;;4997115;28;20410;-82
2021/06/24 12:58:06;;;;;;;12.57;4.40;;;;;;;;;;4995440;28;20407;-82
2021/06/24 13:00:33;;;;;;;15.15;4.78;;;;;;;;;;4995168;28;20522;-82
2021/06/24 13:03:01;;;;;;;13.48;4.80;;;;;;;;;;4998596;28;20938;-82
2021/06/24 13:05:31;;;;;;;16.60;4.50;;;;;;;;;;4996185;28;20438;-81
2021/06/24 13:07:59;;;;;;;12.25;4.57;;;;;;;;;;4997972;28;20451;-81
2021/06/24 13:10:26;;;;;;;13.68;4.72;;;;;;;;;;4993327;28;20410;-82
2021/06/24 13:12:54;;;;;;;14.10;4.80;;;;;;;;;;4993527;28;20469;-83
2021/06/24 13:15:33;;;;;;;12.65;4.75;;;;;;;;;;4996685;28;20411;-83
2021/06/24 13:18:00;;;;;;;12.93;4.80;;;;;;;;;;4997676;28;20847;-83
2021/06/24 13:20:27;;;;;;;13.00;4.23;;;;;;;;;;4994919;28;20461;-83
2021/06/24 13:23:07;;;;;;;15.38;4.80;;;;;;;;;;4994300;28;20403;-81
2021/06/24 13:25:41;;;;;;;12.70;4.53;;;;;;;;;;4996219;28;20922;-81
2021/06/24 13:28:10;;;;;;;15.50;4.65;;;;;;;;;;4994386;28;20440;-81
2021/06/24 13:30:40;;;;;;;16.73;5.00;;;;;;;;;;4998781;28;20461;-81
2021/06/24 13:33:08;;;;;;;11.82;4.63;;;;;;;;;;4996959;28;20536;-81
2021/06/24 13:35:36;;;;;;;16.40;4.63;;;;;;;;;;4996876;28;20407;-83
2021/06/24 13:38:05;;;;;;;16.03;5.03;;;;;;;;;;4996019;28;20404;-81
2021/06/24 13:40:38;;;;;;;13.65;3.83;;;;;;;;;;4993237;28;20511;-82
2021/06/24 13:43:07;;;;;;;11.25;4.03;;;;;;;;;;4993575;28;20644;-81
2021/06/24 13:45:38;;;;;;;12.38;4.30;;;;;;;;;;4993573;28;20407;-81
2021/06/24 13:48:07;;;;;;;13.20;4.25;;;;;;;;;;4994498;28;20415;-83
2021/06/24 13:50:34;;;;;;;13.65;3.97;;;;;;;;;;4994640;28;20451;-84
2021/06/24 13:53:00;;;;;;;12.95;4.47;;;;;;;;;;4994434;28;20403;-83
2021/06/24 13:55:37;;;;;;;10.10;4.00;;;;;;;;;;4995690;28;20421;-82
2021/06/24 13:58:05;;;;;;;12.90;4.38;;;;;;;;;;4998742;28;20901;-83
2021/06/24 14:00:36;;;;;;;11.50;4.10;;;;;;;;;;4995731;28;20471;-81
2021/06/24 14:03:05;;;;;;;12.23;4.00;;;;;;;;;;4997126;28;20435;-83
2021/06/24 14:05:32;;;;;;;11.40;4.05;;;;;;;;;;4994580;28;20414;-83
2021/06/24 14:07:59;;;;;;;14.55;4.20;;;;;;;;;;4997303;28;20854;-83
2021/06/24 14:10:26;;;;;;;10.60;4.25;;;;;;;;;;4995079;28;20414;-82
2021/06/24 14:12:54;;;;;;;17.45;4.50;;;;;;;;;;4997008;28;20501;-82
2021/06/24 14:15:21;;;;;;;13.15;4.32;;;;;;;;;;4997351;28;20715;-83
2021/06/24 14:17:49;;;;;;;11.10;4.07;;;;;;;;;;4995780;28;20409;-82
2021/06/24 14:20:17;;;;;;;13.05;4.18;;;;;;;;;;4996494;28;20545;-83
2021/06/24 14:22:44;;;;;;;11.32;3.92;;;;;;;;;;4998211;28;20445;-82
2021/06/24 14:25:12;;;;;;;12.77;4.07;;;;;;;;;;4994974;28;20408;-83
2021/06/24 14:27:39;;;;;;;12.43;4.03;;;;;;;;;;4994691;28;20401;-83
2021/06/24 14:30:08;;;;;;;15.55;4.32;;;;;;;;;;4990371;28;20510;-83
2021/06/24 14:32:36;;;;;;;12.75;3.92;;;;;;;;;;4991991;28;20426;-83
2021/06/24 14:35:03;;;;;;;8.15;3.90;;;;;;;;;;4996679;28;20415;-83
2021/06/24 14:37:32;;;;;;;12.97;4.13;;;;;;;;;;4989943;28;20399;-84
2021/06/24 14:39:59;;;;;;;15.20;4.40;;;;;;;;;;4994886;28;20815;-82
2021/06/24 14:42:26;;;;;;;12.50;4.10;;;;;;;;;;4998349;28;20411;-82
2021/06/24 14:44:52;;;;;;;8.23;4.00;;;;;;;;;;4993904;28;20428;-83
2021/06/24 14:47:20;;;;;;;13.47;3.90;;;;;;;;;;4995690;28;20403;-83
2021/06/24 14:49:47;;;;;;;10.20;4.25;;;;;;;;;;4993827;28;20534;-83
2021/06/24 14:52:14;;;;;;;10.95;3.75;;;;;;;;;;4995789;28;20931;-82
2021/06/24 14:54:43;;;;;;;10.82;3.30;;;;;;;;;;4992039;28;20960;-82
2021/06/24 14:57:09;;;;;;;12.38;3.50;;;;;;;;;;4995328;28;20423;-82
2021/06/24 14:59:38;;;;;;;10.13;3.60;;;;;;;;;;4992347;28;20689;-83
2021/06/24 15:02:04;;;;;;;8.13;3.30;;;;;;;;;;4992034;28;20485;-83